Waha Mermaid — V7UN8 — position and weather

sailwx.info

Track history (hours):
 
Tides and Currents Weather Stations Pressure Air Temp Water Temp Dewpoint Dewpoint Depression Visibility Wind Speed Wind Dir Waves Ship Positions

Waha Mermaid

Last reported at 2017-Dec-09 11:40 UTC. Time now 2018-Jan-18 21:45 UTC.
Position N 36°51' W 075°50'.
Warning: this ship's position is 40 days out of date.

Length 50 m; draft 4.7 m.

Type: Tug. MMSI: 538003983.

Date/timePositionNaut miles runAvg speedWind from/ knotsBaromVisibWave heightAir tempDewpointWater temp
2017-Dec-09 11:40N 36°51' W 075°50'2 9.6
2017-Dec-09 11:30N 36°52' W 075°52'510.0
2017-Dec-09 11:00N 36°56' W 075°57'5 9.5
2017-Dec-09 10:30N 36°57' W 076°02'5 9.5
2017-Dec-09 10:00N 36°59' W 076°08'5 9.2
2017-Dec-09 09:25N 37°00' W 076°14'4 9.9
2017-Dec-09 08:59N 36°59' W 076°19'5 8.7
2017-Dec-09 08:26N 36°57' W 076°25'1 0.0
2017-Dec-08 18:46N 36°58' W 076°25'0 0.0
2017-Dec-08 18:25N 36°58' W 076°25'0 0.0
2017-Dec-08 17:55N 36°58' W 076°25'0 0.0
2017-Dec-08 17:28N 36°58' W 076°25'0 0.0
2017-Dec-08 16:55N 36°58' W 076°25'0 0.0
2017-Dec-08 16:04N 36°58' W 076°25'0 0.0
2017-Dec-08 15:58N 36°58' W 076°25'0 0.0
2017-Dec-08 14:22N 36°58' W 076°25'0 0.0
2017-Dec-08 13:58N 36°58' W 076°25'0 0.0
2017-Dec-08 13:22N 36°58' W 076°25'0 0.0
2017-Dec-08 12:19N 36°58' W 076°25'0 0.0
2017-Dec-08 10:43N 36°58' W 076°25'0 0.0
2017-Dec-08 09:43N 36°58' W 076°25'0 0.0
2017-Dec-08 09:25N 36°58' W 076°25'0 0.0
2017-Dec-08 08:58N 36°58' W 076°25'0 0.0
2017-Dec-08 08:28N 36°58' W 076°25'0 0.0
2017-Dec-08 07:55N 36°58' W 076°25'0 0.0
2017-Dec-08 07:16N 36°58' W 076°25'0 0.0
2017-Dec-08 06:46N 36°58' W 076°25'0 0.0
2017-Dec-08 06:25N 36°58' W 076°25'0 0.0
2017-Dec-08 05:52N 36°58' W 076°25'0 0.0
2017-Dec-08 05:28N 36°58' W 076°25'0 0.0
2017-Dec-08 04:55N 36°58' W 076°25'0 0.0
2017-Dec-08 04:25N 36°58' W 076°25'0 0.0
2017-Dec-08 03:55N 36°58' W 076°25'0 0.0
2017-Dec-08 03:19N 36°58' W 076°25'0 0.0
2017-Dec-08 00:52N 36°58' W 076°25'0 0.0
2017-Dec-08 00:22N 36°58' W 076°25'0 0.0
2017-Dec-07 23:46N 36°58' W 076°25'0 0.0
2017-Dec-07 23:13N 36°58' W 076°25'0 0.0
2017-Dec-07 22:58N 36°58' W 076°25'0 0.0
2017-Dec-07 22:28N 36°58' W 076°25'0 0.0
2017-Dec-07 21:52N 36°58' W 076°25'0 0.0
2017-Dec-07 21:28N 36°58' W 076°25'0 0.0
2017-Dec-07 20:58N 36°58' W 076°25'0 0.0
2017-Dec-07 20:01N 36°58' W 076°25'0 0.0
2017-Dec-07 19:55N 36°58' W 076°25'0 0.0
2017-Dec-07 18:10N 36°58' W 076°25'0 0.0
2017-Dec-07 17:58N 36°58' W 076°25'0 0.0
2017-Dec-07 17:25N 36°58' W 076°25'0 0.0
2017-Dec-07 16:55N 36°58' W 076°25'0 0.0
2017-Dec-07 16:25N 36°58' W 076°25'0 0.0
2017-Dec-07 15:55N 36°58' W 076°25'0 0.0
2017-Dec-07 15:19N 36°58' W 076°25'0 0.0
2017-Dec-07 14:58N 36°58' W 076°25'0 0.0
2017-Dec-07 14:28N 36°58' W 076°25'0 0.0
2017-Dec-07 13:58N 36°58' W 076°25'0 0.0
2017-Dec-07 13:28N 36°58' W 076°25'0 0.0
2017-Dec-07 12:58N 36°58' W 076°25'0 0.0
2017-Dec-07 12:28N 36°58' W 076°25'0 0.0
2017-Dec-07 11:58N 36°58' W 076°25'0 0.0
2017-Dec-07 11:28N 36°58' W 076°25'0 0.0
2017-Dec-07 10:49N 36°58' W 076°25'0 0.0
2017-Dec-07 10:28N 36°58' W 076°25'0 0.0
2017-Dec-07 09:58N 36°58' W 076°25'0 0.0
2017-Dec-07 09:28N 36°58' W 076°25'0 0.0
2017-Dec-07 08:58N 36°58' W 076°25'0 0.0
2017-Dec-07 08:25N 36°58' W 076°25'0 0.0
2017-Dec-07 07:58N 36°58' W 076°25'0 0.0
2017-Dec-07 07:28N 36°58' W 076°25'0 0.0
2017-Dec-07 06:58N 36°58' W 076°25'0 0.0
2017-Dec-07 06:25N 36°58' W 076°25'0 0.0
2017-Dec-07 05:55N 36°58' W 076°25'0 0.0
2017-Dec-07 05:28N 36°58' W 076°25'0 0.0
2017-Dec-07 04:58N 36°58' W 076°25'0 0.0
2017-Dec-07 04:28N 36°58' W 076°25'0 0.0
2017-Dec-07 03:58N 36°58' W 076°25'0 0.0
2017-Dec-07 03:28N 36°58' W 076°25'0 0.0
2017-Dec-07 02:58N 36°58' W 076°25'0 0.0
2017-Dec-07 02:25N 36°58' W 076°25'0 0.0
2017-Dec-07 01:58N 36°58' W 076°25'0 0.0
2017-Dec-07 01:28N 36°58' W 076°25'0 0.0
2017-Dec-07 00:58N 36°58' W 076°25'0 0.0
2017-Dec-07 00:28N 36°58' W 076°25'0 0.2
2017-Dec-07 00:00N 36°58' W 076°25'4 7.7
2017-Dec-06 23:30N 36°58' W 076°21'711.5
2017-Dec-06 22:55N 36°60' W 076°13'613.4
2017-Dec-06 22:30N 36°58' W 076°06'611.4
2017-Dec-06 22:00N 36°57' W 075°59'5 9.6
2017-Dec-06 21:30N 36°57' W 075°53'4 8.6
2017-Dec-06 21:00N 36°58' W 075°48'  
Track history (hours):
 
Tides and Currents Weather Stations Pressure Air Temp Water Temp Dewpoint Dewpoint Depression Visibility Wind Speed Wind Dir Waves Ship Positions

Waha Mermaid

Last reported at 2017-Dec-09 11:40 UTC. Time now 2018-Jan-18 21:45 UTC.
Position N 36°51' W 075°50'.
Warning: this ship's position is 40 days out of date.

Length 50 m; draft 4.7 m.

Type: Tug. MMSI: 538003983.

Date/timePositionNaut miles runAvg speedWind from/ knotsBaromVisibWave heightAir tempDewpointWater temp
2017-Dec-09 11:40N 36°51' W 075°50'2 9.6
2017-Dec-09 11:30N 36°52' W 075°52'510.0
2017-Dec-09 11:00N 36°56' W 075°57'5 9.5
2017-Dec-09 10:30N 36°57' W 076°02'5 9.5
2017-Dec-09 10:00N 36°59' W 076°08'5 9.2
2017-Dec-09 09:25N 37°00' W 076°14'4 9.9
2017-Dec-09 08:59N 36°59' W 076°19'5 8.7
2017-Dec-09 08:26N 36°57' W 076°25'1 0.0
2017-Dec-08 18:46N 36°58' W 076°25'0 0.0
2017-Dec-08 18:25N 36°58' W 076°25'0 0.0
2017-Dec-08 17:55N 36°58' W 076°25'0 0.0
2017-Dec-08 17:28N 36°58' W 076°25'0 0.0
2017-Dec-08 16:55N 36°58' W 076°25'0 0.0
2017-Dec-08 16:04N 36°58' W 076°25'0 0.0
2017-Dec-08 15:58N 36°58' W 076°25'0 0.0
2017-Dec-08 14:22N 36°58' W 076°25'0 0.0
2017-Dec-08 13:58N 36°58' W 076°25'0 0.0
2017-Dec-08 13:22N 36°58' W 076°25'0 0.0
2017-Dec-08 12:19N 36°58' W 076°25'0 0.0
2017-Dec-08 10:43N 36°58' W 076°25'0 0.0
2017-Dec-08 09:43N 36°58' W 076°25'0 0.0
2017-Dec-08 09:25N 36°58' W 076°25'0 0.0
2017-Dec-08 08:58N 36°58' W 076°25'0 0.0
2017-Dec-08 08:28N 36°58' W 076°25'0 0.0
2017-Dec-08 07:55N 36°58' W 076°25'0 0.0
2017-Dec-08 07:16N 36°58' W 076°25'0 0.0
2017-Dec-08 06:46N 36°58' W 076°25'0 0.0
2017-Dec-08 06:25N 36°58' W 076°25'0 0.0
2017-Dec-08 05:52N 36°58' W 076°25'0 0.0
2017-Dec-08 05:28N 36°58' W 076°25'0 0.0
2017-Dec-08 04:55N 36°58' W 076°25'0 0.0
2017-Dec-08 04:25N 36°58' W 076°25'0 0.0
2017-Dec-08 03:55N 36°58' W 076°25'0 0.0
2017-Dec-08 03:19N 36°58' W 076°25'0 0.0
2017-Dec-08 00:52N 36°58' W 076°25'0 0.0
2017-Dec-08 00:22N 36°58' W 076°25'0 0.0
2017-Dec-07 23:46N 36°58' W 076°25'0 0.0
2017-Dec-07 23:13N 36°58' W 076°25'0 0.0
2017-Dec-07 22:58N 36°58' W 076°25'0 0.0
2017-Dec-07 22:28N 36°58' W 076°25'0 0.0
2017-Dec-07 21:52N 36°58' W 076°25'0 0.0
2017-Dec-07 21:28N 36°58' W 076°25'0 0.0
2017-Dec-07 20:58N 36°58' W 076°25'0 0.0
2017-Dec-07 20:01N 36°58' W 076°25'0 0.0
2017-Dec-07 19:55N 36°58' W 076°25'0 0.0
2017-Dec-07 18:10N 36°58' W 076°25'0 0.0
2017-Dec-07 17:58N 36°58' W 076°25'0 0.0
2017-Dec-07 17:25N 36°58' W 076°25'0 0.0
2017-Dec-07 16:55N 36°58' W 076°25'0 0.0
2017-Dec-07 16:25N 36°58' W 076°25'0 0.0
2017-Dec-07 15:55N 36°58' W 076°25'0 0.0
2017-Dec-07 15:19N 36°58' W 076°25'0 0.0
2017-Dec-07 14:58N 36°58' W 076°25'0 0.0
2017-Dec-07 14:28N 36°58' W 076°25'0 0.0
2017-Dec-07 13:58N 36°58' W 076°25'0 0.0
2017-Dec-07 13:28N 36°58' W 076°25'0 0.0
2017-Dec-07 12:58N 36°58' W 076°25'0 0.0
2017-Dec-07 12:28N 36°58' W 076°25'0 0.0
2017-Dec-07 11:58N 36°58' W 076°25'0 0.0
2017-Dec-07 11:28N 36°58' W 076°25'0 0.0
2017-Dec-07 10:49N 36°58' W 076°25'0 0.0
2017-Dec-07 10:28N 36°58' W 076°25'0 0.0
2017-Dec-07 09:58N 36°58' W 076°25'0 0.0
2017-Dec-07 09:28N 36°58' W 076°25'0 0.0
2017-Dec-07 08:58N 36°58' W 076°25'0 0.0
2017-Dec-07 08:25N 36°58' W 076°25'0 0.0
2017-Dec-07 07:58N 36°58' W 076°25'0 0.0
2017-Dec-07 07:28N 36°58' W 076°25'0 0.0
2017-Dec-07 06:58N 36°58' W 076°25'0 0.0
2017-Dec-07 06:25N 36°58' W 076°25'0 0.0
2017-Dec-07 05:55N 36°58' W 076°25'0 0.0
2017-Dec-07 05:28N 36°58' W 076°25'0 0.0
2017-Dec-07 04:58N 36°58' W 076°25'0 0.0
2017-Dec-07 04:28N 36°58' W 076°25'0 0.0
2017-Dec-07 03:58N 36°58' W 076°25'0 0.0
2017-Dec-07 03:28N 36°58' W 076°25'0 0.0
2017-Dec-07 02:58N 36°58' W 076°25'0 0.0
2017-Dec-07 02:25N 36°58' W 076°25'0 0.0
2017-Dec-07 01:58N 36°58' W 076°25'0 0.0
2017-Dec-07 01:28N 36°58' W 076°25'0 0.0
2017-Dec-07 00:58N 36°58' W 076°25'0 0.0
2017-Dec-07 00:28N 36°58' W 076°25'0 0.2
2017-Dec-07 00:00N 36°58' W 076°25'4 7.7
2017-Dec-06 23:30N 36°58' W 076°21'711.5
2017-Dec-06 22:55N 36°60' W 076°13'613.4
2017-Dec-06 22:30N 36°58' W 076°06'611.4
2017-Dec-06 22:00N 36°57' W 075°59'5 9.6
2017-Dec-06 21:30N 36°57' W 075°53'4 8.6
2017-Dec-06 21:00N 36°58' W 075°48'  

Dump ship's entire track history